createdAt,value
2019-02-19T00:01:35.667Z,100.00
2019-02-19T00:04:26.268Z,100.00
2019-02-19T00:07:15.715Z,100.00
2019-02-19T00:10:05.284Z,100.00
2019-02-19T00:12:55.004Z,100.00
2019-02-19T00:15:44.307Z,100.00
2019-02-19T00:18:33.699Z,100.00
2019-02-19T00:21:23.274Z,100.00
2019-02-19T00:24:12.958Z,100.00
2019-02-19T00:27:02.511Z,100.00
2019-02-19T00:29:51.813Z,100.00
2019-02-19T00:32:41.339Z,100.00
2019-02-19T00:35:30.782Z,100.00
2019-02-19T00:38:20.217Z,100.00
2019-02-19T00:41:09.601Z,100.00
2019-02-19T00:43:58.812Z,100.00
2019-02-19T00:46:48.041Z,100.00
2019-02-19T00:49:37.470Z,100.00
2019-02-19T00:52:27.164Z,100.00
2019-02-19T00:55:16.834Z,100.00
2019-02-19T00:58:06.705Z,100.00
2019-02-19T01:00:56.379Z,100.00
2019-02-19T01:03:45.916Z,100.00
2019-02-19T01:06:36.066Z,100.00
2019-02-19T01:09:26.047Z,100.00
2019-02-19T01:12:15.520Z,100.00
2019-02-19T01:15:06.145Z,100.00
2019-02-19T01:17:55.723Z,100.00
2019-02-19T01:20:45.116Z,100.00
2019-02-19T01:23:34.369Z,100.00
2019-02-19T01:26:23.713Z,100.00
2019-02-19T01:29:13.019Z,100.00
2019-02-19T01:32:02.352Z,100.00
2019-02-19T01:34:51.953Z,100.00
2019-02-19T01:37:41.683Z,100.00
2019-02-19T01:40:30.999Z,100.00
2019-02-19T01:43:21.163Z,100.00
2019-02-19T01:46:10.669Z,100.00
2019-02-19T01:49:00.182Z,100.00
2019-02-19T01:51:51.233Z,100.00
2019-02-19T01:54:40.681Z,100.00
2019-02-19T01:57:30.529Z,100.00
2019-02-19T02:00:20.209Z,100.00
2019-02-19T02:03:09.540Z,100.00
2019-02-19T02:05:58.893Z,100.00
2019-02-19T02:08:48.511Z,100.00
2019-02-19T02:11:38.190Z,100.00
2019-02-19T02:14:27.989Z,100.00
2019-02-19T02:17:17.438Z,100.00
2019-02-19T02:20:07.511Z,100.00
2019-02-19T02:22:59.421Z,100.00
2019-02-19T02:25:48.826Z,100.00
2019-02-19T02:28:38.500Z,100.00
2019-02-19T02:31:27.828Z,100.00
2019-02-19T02:34:17.600Z,100.00
2019-02-19T02:37:07.074Z,100.00
2019-02-19T02:39:56.563Z,100.00
2019-02-19T02:42:46.300Z,100.00
2019-02-19T02:45:35.828Z,100.00
2019-02-19T02:48:25.351Z,100.00
2019-02-19T02:51:14.948Z,100.00
2019-02-19T02:54:04.508Z,100.00
2019-02-19T02:56:54.077Z,100.00
2019-02-19T02:59:47.311Z,100.00
2019-02-19T03:02:36.703Z,100.00
2019-02-19T03:05:26.341Z,100.00
2019-02-19T03:08:15.882Z,100.00
2019-02-19T03:11:06.360Z,100.00
2019-02-19T03:13:55.595Z,100.00
2019-02-19T03:16:44.930Z,100.00
2019-02-19T03:19:34.261Z,100.00
2019-02-19T03:22:23.939Z,100.00
2019-02-19T03:25:13.372Z,100.00
2019-02-19T03:28:03.026Z,100.00
2019-02-19T03:30:52.534Z,100.00
2019-02-19T03:33:42.173Z,100.00
2019-02-19T03:36:31.727Z,100.00
2019-02-19T03:39:21.166Z,100.00
2019-02-19T03:42:10.947Z,100.00
2019-02-19T03:45:00.382Z,100.00
2019-02-19T03:47:49.855Z,100.00
2019-02-19T03:50:39.104Z,100.00
2019-02-19T03:53:28.611Z,100.00
2019-02-19T03:56:18.171Z,100.00
2019-02-19T03:59:07.540Z,100.00
2019-02-19T04:01:57.185Z,100.00
2019-02-19T04:04:46.704Z,100.00
2019-02-19T04:07:36.422Z,100.00
2019-02-19T04:10:26.168Z,100.00
2019-02-19T04:13:16.634Z,100.00
2019-02-19T04:16:05.834Z,100.00
2019-02-19T04:18:55.627Z,100.00
2019-02-19T04:21:45.422Z,100.00
2019-02-19T04:24:34.680Z,100.00
2019-02-19T04:27:24.132Z,100.00
2019-02-19T04:30:13.639Z,100.00
2019-02-19T04:33:03.178Z,100.00
2019-02-19T04:35:52.927Z,100.00
2019-02-19T04:38:42.522Z,100.00
2019-02-19T04:41:32.357Z,100.00
2019-02-19T04:44:23.684Z,100.00
2019-02-19T04:47:12.961Z,100.00
2019-02-19T04:50:02.627Z,100.00
2019-02-19T04:52:52.062Z,100.00
2019-02-19T04:55:41.727Z,100.00
2019-02-19T04:58:31.288Z,100.00
2019-02-19T05:01:20.962Z,100.00
2019-02-19T05:04:10.387Z,100.00
2019-02-19T05:06:59.907Z,100.00
2019-02-19T05:09:49.670Z,100.00
2019-02-19T05:12:39.839Z,100.00
2019-02-19T05:15:29.487Z,100.00
2019-02-19T05:18:19.365Z,100.00
2019-02-19T05:21:09.192Z,100.00
2019-02-19T05:23:58.671Z,100.00
2019-02-19T05:26:49.775Z,100.00
2019-02-19T05:29:39.066Z,100.00
2019-02-19T05:32:28.886Z,100.00
2019-02-19T05:35:18.423Z,100.00
2019-02-19T05:38:07.990Z,100.00
2019-02-19T05:40:57.614Z,100.00
2019-02-19T05:43:47.135Z,100.00
2019-02-19T05:46:36.402Z,100.00
2019-02-19T05:49:25.988Z,100.00
2019-02-19T05:52:15.308Z,100.00
2019-02-19T05:55:04.978Z,100.00
2019-02-19T05:57:54.292Z,100.00
2019-02-19T06:00:43.817Z,100.00
2019-02-19T06:03:33.555Z,100.00
2019-02-19T06:06:23.127Z,100.00
2019-02-19T06:09:12.746Z,100.00
2019-02-19T06:12:02.163Z,100.00
2019-02-19T06:14:51.647Z,100.00
2019-02-19T06:17:41.065Z,100.00
2019-02-19T06:20:30.889Z,100.00
2019-02-19T06:23:20.400Z,100.00
2019-02-19T06:26:09.619Z,100.00
2019-02-19T06:28:59.198Z,100.00
2019-02-19T06:31:48.565Z,100.00
2019-02-19T06:34:38.291Z,100.00
2019-02-19T06:37:27.624Z,100.00
2019-02-19T06:40:28.433Z,100.00
2019-02-19T06:43:18.026Z,100.00
2019-02-19T06:46:07.322Z,100.00
2019-02-19T06:48:56.756Z,100.00
2019-02-19T06:51:48.074Z,100.00
2019-02-19T06:54:37.483Z,100.00
2019-02-19T06:57:27.106Z,100.00
2019-02-19T07:00:16.398Z,100.00
2019-02-19T07:03:20.351Z,100.00
2019-02-19T07:06:10.026Z,100.00
2019-02-19T07:08:59.331Z,100.00
2019-02-19T07:11:49.156Z,100.00
2019-02-19T07:14:38.867Z,100.00
2019-02-19T07:17:28.772Z,100.00
2019-02-19T07:20:18.154Z,100.00
2019-02-19T07:23:07.907Z,100.00
2019-02-19T07:25:59.143Z,100.00
2019-02-19T07:28:48.611Z,100.00
2019-02-19T07:31:38.354Z,100.00
2019-02-19T07:34:28.129Z,100.00
2019-02-19T07:37:18.977Z,100.00
2019-02-19T07:40:08.416Z,100.00
2019-02-19T07:42:58.088Z,99.57
2019-02-19T07:45:47.537Z,99.36
2019-02-19T07:48:37.215Z,98.41
2019-02-19T07:51:26.548Z,97.96
2019-02-19T07:54:16.351Z,97.79
2019-02-19T07:57:06.197Z,96.82
2019-02-19T07:59:57.547Z,96.23
2019-02-19T08:02:46.864Z,95.54
2019-02-19T08:05:36.242Z,94.72
2019-02-19T08:08:25.855Z,93.99
2019-02-19T08:11:15.375Z,93.19
2019-02-19T08:14:04.718Z,92.77
2019-02-19T08:16:54.099Z,91.97
2019-02-19T08:19:43.776Z,91.81
2019-02-19T08:22:33.429Z,90.75
2019-02-19T08:25:22.588Z,90.08
2019-02-19T08:28:12.103Z,89.85
2019-02-19T08:31:01.609Z,89.65
2019-02-19T08:33:51.013Z,88.85
2019-02-19T08:36:40.382Z,87.68
2019-02-19T08:39:29.989Z,87.31
2019-02-19T08:42:19.514Z,85.51
2019-02-19T08:45:09.055Z,84.53
2019-02-19T08:47:58.515Z,82.48
2019-02-19T08:50:48.139Z,81.47
2019-02-19T08:53:37.968Z,80.64
2019-02-19T08:56:27.592Z,79.14
2019-02-19T08:59:16.907Z,77.75
2019-02-19T09:02:06.442Z,78.45
2019-02-19T09:04:55.736Z,77.23
2019-02-19T09:07:45.166Z,77.06
2019-02-19T09:10:34.849Z,77.11
2019-02-19T09:13:24.407Z,77.46
2019-02-19T09:16:13.735Z,75.70
2019-02-19T09:19:02.989Z,75.73
2019-02-19T09:21:52.252Z,75.11
2019-02-19T09:24:45.050Z,74.32
2019-02-19T09:27:34.452Z,75.08
2019-02-19T09:30:23.681Z,73.57
2019-02-19T09:33:13.261Z,72.70
2019-02-19T09:36:02.614Z,71.68
2019-02-19T09:38:52.187Z,71.22
2019-02-19T09:41:41.378Z,70.53
2019-02-19T09:44:32.488Z,70.46
2019-02-19T09:47:21.841Z,70.71
2019-02-19T09:50:11.449Z,70.71
2019-02-19T09:53:00.856Z,69.86
2019-02-19T09:55:51.256Z,69.49
2019-02-19T09:58:40.913Z,68.28
2019-02-19T10:01:30.111Z,67.68
2019-02-19T10:04:19.767Z,67.06
2019-02-19T10:07:09.372Z,66.21
2019-02-19T10:09:58.991Z,66.54
2019-02-19T10:12:48.339Z,66.21
2019-02-19T10:15:38.112Z,65.72
2019-02-19T10:18:27.243Z,64.61
2019-02-19T10:21:17.050Z,66.80
2019-02-19T10:24:06.348Z,63.95
2019-02-19T10:26:57.604Z,65.28
2019-02-19T10:29:47.174Z,65.07
2019-02-19T10:32:36.519Z,66.27
2019-02-19T10:35:25.974Z,63.79
2019-02-19T10:38:15.640Z,61.42
2019-02-19T10:41:05.276Z,61.18
2019-02-19T10:43:54.802Z,62.98
2019-02-19T10:46:47.530Z,62.31
2019-02-19T10:49:36.814Z,62.01
2019-02-19T10:52:26.141Z,60.94
2019-02-19T10:55:15.764Z,61.77
2019-02-19T10:58:05.222Z,61.09
2019-02-19T11:00:54.554Z,60.92
2019-02-19T11:03:43.777Z,60.46
2019-02-19T11:06:34.330Z,61.27
2019-02-19T11:09:23.674Z,60.20
2019-02-19T11:12:13.229Z,60.01
2019-02-19T11:15:02.794Z,61.57
2019-02-19T11:17:52.318Z,59.15
2019-02-19T11:20:41.911Z,59.08
2019-02-19T11:23:31.436Z,60.24
2019-02-19T11:26:20.662Z,59.12
2019-02-19T11:29:09.925Z,59.66
2019-02-19T11:31:59.463Z,60.32
2019-02-19T11:34:48.975Z,58.69
2019-02-19T11:37:38.670Z,58.13
2019-02-19T11:40:28.019Z,57.52
2019-02-19T11:43:17.276Z,57.92
2019-02-19T11:46:06.513Z,57.99
2019-02-19T11:48:56.225Z,57.97
2019-02-19T11:51:45.964Z,57.40
2019-02-19T11:54:35.692Z,56.86
2019-02-19T11:57:25.302Z,58.01
2019-02-19T12:00:18.344Z,56.43
2019-02-19T12:03:07.603Z,55.86
2019-02-19T12:05:57.162Z,55.86
2019-02-19T12:08:46.608Z,56.65
2019-02-19T12:11:36.063Z,56.98
2019-02-19T12:14:25.366Z,57.53
2019-02-19T12:17:15.050Z,56.68
2019-02-19T12:20:05.148Z,56.64
2019-02-19T12:22:54.715Z,56.34
2019-02-19T12:25:44.056Z,57.84
2019-02-19T12:28:33.596Z,56.61
2019-02-19T12:31:23.110Z,56.77
2019-02-19T12:34:12.463Z,56.31
2019-02-19T12:37:01.868Z,56.83
2019-02-19T12:39:51.123Z,56.99
2019-02-19T12:42:40.445Z,56.46
2019-02-19T12:45:30.081Z,57.31
2019-02-19T12:48:19.407Z,56.63
2019-02-19T12:51:08.836Z,56.17
2019-02-19T12:53:58.547Z,56.83
2019-02-19T12:56:48.176Z,56.71
2019-02-19T12:59:37.492Z,57.37
2019-02-19T13:02:26.717Z,57.09
2019-02-19T13:05:16.286Z,57.34
2019-02-19T13:08:05.678Z,55.68
2019-02-19T13:10:55.309Z,56.03
2019-02-19T13:13:44.917Z,56.44
2019-02-19T13:16:35.897Z,55.64
2019-02-19T13:19:25.156Z,55.79
2019-02-19T13:22:14.722Z,55.90
2019-02-19T13:25:04.283Z,56.24
2019-02-19T13:27:53.908Z,56.01
2019-02-19T13:30:43.165Z,55.95
2019-02-19T13:33:32.983Z,55.89
2019-02-19T13:36:22.550Z,56.35
2019-02-19T13:39:12.246Z,56.17
2019-02-19T13:42:01.559Z,55.71
2019-02-19T13:44:50.894Z,55.04
2019-02-19T13:47:40.279Z,55.79
2019-02-19T13:50:30.047Z,55.74
2019-02-19T13:53:24.117Z,55.06
2019-02-19T13:56:13.388Z,55.89
2019-02-19T13:59:02.856Z,55.38
2019-02-19T14:01:52.135Z,56.19
2019-02-19T14:04:41.603Z,56.69
2019-02-19T14:07:31.394Z,57.90
2019-02-19T14:10:20.809Z,57.21
2019-02-19T14:13:10.202Z,56.97
2019-02-19T14:16:18.608Z,57.02
2019-02-19T14:19:21.019Z,56.75
2019-02-19T14:22:31.990Z,57.54
2019-02-19T14:25:59.463Z,57.67
2019-02-19T14:29:00.824Z,57.86
2019-02-19T14:32:12.327Z,57.81
2019-02-19T14:35:20.778Z,58.02
2019-02-19T14:38:37.456Z,57.74
2019-02-19T14:41:51.718Z,57.46
2019-02-19T14:44:51.118Z,57.68
2019-02-19T14:48:05.497Z,59.14
2019-02-19T14:51:14.176Z,58.63
2019-02-19T14:54:34.972Z,58.25
2019-02-19T14:57:40.243Z,58.29
2019-02-19T15:00:48.643Z,58.46
2019-02-19T15:03:59.139Z,58.42
2019-02-19T15:07:13.613Z,58.88
2019-02-19T15:10:31.236Z,58.84
2019-02-19T15:13:39.825Z,59.58
2019-02-19T15:16:43.451Z,59.67
2019-02-19T15:19:50.942Z,60.01
2019-02-19T15:23:17.990Z,60.50
2019-02-19T15:26:15.616Z,60.75
2019-02-19T15:29:26.453Z,60.31
2019-02-19T15:32:40.756Z,60.45
2019-02-19T15:35:55.336Z,60.79
2019-02-19T15:38:58.130Z,61.35
2019-02-19T15:42:05.009Z,61.95
2019-02-19T15:45:28.804Z,62.09
2019-02-19T15:48:42.852Z,62.94
2019-02-19T15:51:55.369Z,63.44
2019-02-19T15:55:02.385Z,63.90
2019-02-19T15:58:10.904Z,64.30
2019-02-19T16:01:18.529Z,65.14
2019-02-19T16:04:13.980Z,65.63
2019-02-19T16:07:40.570Z,65.92
2019-02-19T16:10:51.400Z,65.98
2019-02-19T16:14:04.495Z,66.24
2019-02-19T16:17:22.800Z,66.99
2019-02-19T16:20:35.934Z,66.99
2019-02-19T16:24:02.822Z,66.80
2019-02-19T16:27:01.388Z,67.25
2019-02-19T16:30:04.939Z,67.99
2019-02-19T16:33:02.215Z,68.73
2019-02-19T16:35:59.762Z,69.44
2019-02-19T16:38:59.280Z,69.85
2019-02-19T16:41:55.600Z,70.51
2019-02-19T16:45:19.049Z,71.28
2019-02-19T16:48:19.500Z,71.85
2019-02-19T16:51:22.423Z,72.63
2019-02-19T16:54:38.314Z,73.70
2019-02-19T16:57:46.903Z,73.70
2019-02-19T17:00:58.020Z,74.22
2019-02-19T17:04:05.086Z,74.63
2019-02-19T17:07:13.738Z,75.45
2019-02-19T17:10:31.317Z,75.89
2019-02-19T17:13:46.739Z,76.21
2019-02-19T17:16:49.708Z,77.01
2019-02-19T17:20:28.555Z,77.71
2019-02-19T17:23:16.085Z,78.32
2019-02-19T17:26:23.686Z,79.14
2019-02-19T17:29:26.457Z,79.74
2019-02-19T17:32:30.249Z,80.62
2019-02-19T17:35:40.217Z,80.62
2019-02-19T17:38:54.637Z,81.06
2019-02-19T17:42:05.869Z,81.34
2019-02-19T17:45:08.860Z,81.71
2019-02-19T17:48:17.523Z,81.86
2019-02-19T17:51:20.072Z,82.02
2019-02-19T17:54:16.291Z,82.44
2019-02-19T17:57:24.869Z,83.38
2019-02-19T18:00:23.317Z,83.34
2019-02-19T18:03:37.767Z,83.05
2019-02-19T18:07:01.528Z,82.90
2019-02-19T18:10:02.995Z,82.81
2019-02-19T18:13:03.479Z,83.11
2019-02-19T18:16:14.667Z,83.59
2019-02-19T18:19:04.036Z,84.08
2019-02-19T18:21:53.514Z,84.57
2019-02-19T18:24:43.223Z,84.69
2019-02-19T18:27:32.984Z,85.01
2019-02-19T18:30:22.245Z,85.46
2019-02-19T18:33:11.551Z,85.58
2019-02-19T18:36:01.173Z,85.84
2019-02-19T18:38:50.554Z,86.37
2019-02-19T18:41:40.153Z,86.81
2019-02-19T18:44:29.769Z,87.44
2019-02-19T18:47:19.399Z,87.85
2019-02-19T18:50:09.426Z,88.33
2019-02-19T18:52:58.683Z,88.57
2019-02-19T18:55:48.161Z,88.76
2019-02-19T18:58:37.726Z,88.83
2019-02-19T19:01:27.323Z,89.16
2019-02-19T19:04:16.786Z,89.31
2019-02-19T19:07:06.437Z,89.47
2019-02-19T19:09:56.204Z,89.61
2019-02-19T19:12:45.979Z,89.82
2019-02-19T19:15:35.417Z,89.88
2019-02-19T19:18:24.959Z,89.97
2019-02-19T19:21:14.340Z,90.16
2019-02-19T19:24:04.221Z,90.51
2019-02-19T19:26:53.725Z,90.53
2019-02-19T19:29:43.132Z,91.23
2019-02-19T19:32:32.831Z,91.28
2019-02-19T19:35:22.465Z,91.25
2019-02-19T19:38:12.107Z,91.42
2019-02-19T19:41:02.740Z,91.59
2019-02-19T19:43:52.559Z,91.76
2019-02-19T19:46:42.435Z,91.76
2019-02-19T19:49:31.933Z,91.92
2019-02-19T19:52:21.456Z,92.21
2019-02-19T19:55:11.219Z,92.56
2019-02-19T19:58:00.997Z,92.67
2019-02-19T20:00:50.594Z,92.83
2019-02-19T20:03:40.022Z,92.95
2019-02-19T20:06:31.504Z,92.89
2019-02-19T20:09:21.070Z,92.95
2019-02-19T20:12:10.772Z,92.98
2019-02-19T20:15:00.423Z,92.97
2019-02-19T20:17:49.950Z,92.82
2019-02-19T20:20:39.580Z,92.91
2019-02-19T20:23:31.188Z,93.16
2019-02-19T20:26:20.582Z,92.94
2019-02-19T20:29:10.443Z,92.81
2019-02-19T20:32:00.104Z,92.98
2019-02-19T20:34:49.671Z,92.77
2019-02-19T20:37:39.328Z,92.48
2019-02-19T20:40:29.039Z,92.53
2019-02-19T20:43:19.959Z,92.47
2019-02-19T20:46:09.369Z,92.45
2019-02-19T20:48:58.829Z,92.60
2019-02-19T20:51:48.506Z,92.93
2019-02-19T20:54:38.236Z,93.33
2019-02-19T20:57:27.744Z,93.53
2019-02-19T21:00:17.591Z,93.38
2019-02-19T21:03:07.071Z,93.36
2019-02-19T21:05:56.404Z,93.42
2019-02-19T21:08:45.829Z,93.30
2019-02-19T21:11:35.327Z,93.20
2019-02-19T21:14:24.980Z,93.02
2019-02-19T21:17:14.383Z,93.02
2019-02-19T21:20:04.007Z,92.95
2019-02-19T21:22:53.545Z,92.91
2019-02-19T21:25:43.040Z,92.93
2019-02-19T21:28:32.849Z,92.87
2019-02-19T21:31:22.196Z,92.97
2019-02-19T21:34:11.366Z,93.10
2019-02-19T21:37:01.041Z,93.11
2019-02-19T21:39:50.446Z,93.17
2019-02-19T21:42:39.983Z,93.32
2019-02-19T21:45:29.358Z,93.68
2019-02-19T21:48:19.263Z,93.69
2019-02-19T21:51:08.791Z,93.92
2019-02-19T21:53:58.001Z,93.91
2019-02-19T21:56:47.591Z,94.00
2019-02-19T21:59:36.995Z,93.96
2019-02-19T22:02:26.218Z,94.11
2019-02-19T22:05:16.052Z,94.36
2019-02-19T22:08:05.451Z,94.45
2019-02-19T22:10:55.274Z,94.32
2019-02-19T22:13:44.874Z,94.47
2019-02-19T22:16:34.390Z,94.48
2019-02-19T22:19:23.793Z,94.56
2019-02-19T22:22:15.607Z,93.46
2019-02-19T22:25:05.028Z,92.16
2019-02-19T22:27:54.549Z,90.96
2019-02-19T22:30:45.978Z,89.99
2019-02-19T22:33:35.325Z,89.05
2019-02-19T22:36:24.595Z,87.50
2019-02-19T22:39:13.951Z,87.35
2019-02-19T22:42:03.501Z,86.78
2019-02-19T22:44:54.543Z,85.91
2019-02-19T22:47:43.866Z,85.51
2019-02-19T22:50:33.473Z,85.22
2019-02-19T22:53:48.505Z,84.93
2019-02-19T22:56:41.924Z,84.81
2019-02-19T22:59:31.250Z,84.55
2019-02-19T23:02:31.545Z,84.16
2019-02-19T23:05:21.020Z,84.13
2019-02-19T23:08:10.786Z,83.78
2019-02-19T23:11:00.467Z,83.37
2019-02-19T23:13:50.103Z,82.83
2019-02-19T23:16:39.684Z,83.62
2019-02-19T23:19:29.201Z,83.97
2019-02-19T23:22:21.845Z,83.68
2019-02-19T23:25:11.627Z,83.97
2019-02-19T23:28:01.150Z,84.19
2019-02-19T23:30:50.548Z,84.42
2019-02-19T23:33:40.145Z,85.63
2019-02-19T23:36:40.418Z,85.96
2019-02-19T23:39:30.069Z,86.29
2019-02-19T23:42:19.338Z,86.75
2019-02-19T23:45:09.398Z,86.90
2019-02-19T23:47:59.025Z,87.39
2019-02-19T23:50:48.700Z,87.79
2019-02-19T23:53:38.313Z,87.81
2019-02-19T23:56:27.917Z,88.08
2019-02-19T23:59:17.746Z,88.58
